createdAt,value
2023-04-19T00:00:27.145Z,100812.39
2023-04-19T00:15:49.888Z,100806.34
2023-04-19T00:30:52.528Z,100799.48
2023-04-19T00:45:55.261Z,100787.99
2023-04-19T01:00:58.238Z,100766.31
2023-04-19T01:16:01.128Z,100738.68
2023-04-19T01:31:04.059Z,100731.20
2023-04-19T01:46:06.721Z,100715.86
2023-04-19T02:01:12.603Z,100701.10
2023-04-19T02:16:15.376Z,100694.95
2023-04-19T02:31:18.214Z,100691.82
2023-04-19T02:46:20.977Z,100688.77
2023-04-19T03:01:24.146Z,100678.61
2023-04-19T03:16:27.230Z,100660.35
2023-04-19T03:31:30.339Z,100656.61
2023-04-19T03:46:33.052Z,100636.98
2023-04-19T04:01:41.953Z,100629.31
2023-04-19T04:16:44.959Z,100645.73
2023-04-19T04:31:47.508Z,100650.89
2023-04-19T04:46:50.275Z,100646.69
2023-04-19T05:01:52.995Z,100647.02
2023-04-19T05:16:55.519Z,100641.73
2023-04-19T05:31:58.589Z,100643.84
2023-04-19T05:47:01.361Z,100634.55
2023-04-19T06:02:05.099Z,100629.17
2023-04-19T06:17:07.785Z,100623.02
2023-04-19T06:32:10.859Z,100630.64
2023-04-19T06:47:13.593Z,100638.05
2023-04-19T07:02:16.381Z,100632.90
2023-04-19T07:17:19.770Z,100635.64
2023-04-19T07:32:22.722Z,100630.77
2023-04-19T07:47:25.262Z,100622.74
2023-04-19T08:02:28.404Z,100622.59
2023-04-19T08:17:39.982Z,100608.77
2023-04-19T08:32:44.732Z,100608.63
2023-04-19T08:47:56.829Z,100613.05
2023-04-19T09:03:03.597Z,100603.41
2023-04-19T09:18:35.805Z,100605.05
2023-04-19T09:33:40.613Z,100590.02
2023-04-19T09:48:43.167Z,100586.68
2023-04-19T10:03:49.328Z,100593.52
2023-04-19T10:18:53.416Z,100587.39
2023-04-19T10:33:57.544Z,100584.19
2023-04-19T10:49:02.206Z,100569.27
2023-04-19T11:04:34.587Z,100569.30
2023-04-19T11:19:37.236Z,100565.90
2023-04-19T11:34:40.983Z,100566.74
2023-04-19T11:49:43.589Z,100557.48
2023-04-19T12:04:46.444Z,100561.55
2023-04-19T12:19:49.340Z,100563.33
2023-04-19T12:34:51.995Z,100560.09
2023-04-19T12:49:57.574Z,100568.20
2023-04-19T13:05:00.257Z,100565.93
2023-04-19T13:20:03.554Z,100564.21
2023-04-19T13:35:06.512Z,100561.92
2023-04-19T13:50:09.501Z,100566.60
2023-04-19T14:05:12.094Z,100560.16
2023-04-19T14:20:15.814Z,100549.45
2023-04-19T14:35:18.636Z,100549.20
2023-04-19T14:50:21.720Z,100547.63
2023-04-19T15:05:27.586Z,100549.31
2023-04-19T15:20:30.686Z,100548.90
2023-04-19T15:35:33.368Z,100547.93
2023-04-19T15:50:37.045Z,100546.19
2023-04-19T16:05:40.237Z,100544.26
2023-04-19T16:20:43.078Z,100552.29
2023-04-19T16:35:45.860Z,100566.20
2023-04-19T16:50:49.521Z,100570.54
2023-04-19T17:05:52.268Z,100571.13
2023-04-19T17:20:54.980Z,100585.33
2023-04-19T17:35:57.908Z,100589.45
2023-04-19T17:51:00.696Z,100591.52
2023-04-19T18:06:03.435Z,100597.30
2023-04-19T18:21:06.651Z,100613.02
2023-04-19T18:36:09.596Z,100626.33
2023-04-19T18:51:12.512Z,100634.90
2023-04-19T19:06:15.589Z,100635.88
2023-04-19T19:21:18.808Z,100629.36
2023-04-19T19:36:21.690Z,100634.58
2023-04-19T19:51:52.391Z,100641.60
2023-04-19T20:21:52.361Z,100662.20
2023-04-19T20:36:54.962Z,100664.35
2023-04-19T20:51:57.614Z,100674.02
2023-04-19T21:07:01.109Z,100656.63
2023-04-19T21:22:03.939Z,100666.85
2023-04-19T21:37:06.647Z,100667.32
2023-04-19T21:52:09.247Z,100652.02
2023-04-19T22:07:18.659Z,100664.84
2023-04-19T22:22:21.794Z,100660.38
2023-04-19T22:37:24.663Z,100666.11
2023-04-19T22:52:27.809Z,100658.07
2023-04-19T23:07:30.737Z,100653.09
2023-04-19T23:22:33.336Z,100645.52
2023-04-19T23:37:36.724Z,100640.46
2023-04-19T23:52:39.685Z,100637.69
